aviador You're here:

ZYTX Decoded Metar

SHENYANG/TAOKIAN in CHINA
Report Time2017-03-28 06:00:00
UTC Time2017-03-28 06:16:26
Flight Rules vfr VFR
Wind230° at 17 kt
W.Decomp.*RWY 24: 17.0 kt HW 0.6 kt LCW
W.Rank230° ranks 15
Current wind is above 230° avg. (7.9)
Visibility9999 m
Phenomena:N/A
Clouds:Broken 040 Hf
Expected CloudBase > 8,400 ft AGL from Temp-Dew spread
Ceiling4,000 ft
Temp15°C (ISA 0)
Dew Point-6°C (23% RH)
AAT6.2°C
QNH1017 hPa
Density Alt66 ft
Elevation115 ft
Report Wrong Elevation
Raw Report
ZYTX 280600Z 23009MPS 9999 BKN040 15/M06 Q1017 NOSIG=

Extra information for ZYTX:More info

Metar Taf Metar & Taf Last 4 Metars F.Rules Stats Wind Profile Meteogram Temp Stats Airport Information Weather charts Add Link Nearby VenuesMetar ALERT Operation Metar Decoded Social comments